createdAt,value
2019-05-06T00:00:26.539Z,101521.37
2019-05-06T00:02:55.904Z,101512.44
2019-05-06T00:05:25.904Z,101515.63
2019-05-06T00:07:55.590Z,101513.08
2019-05-06T00:10:30.334Z,101508.67
2019-05-06T00:12:59.764Z,101513.56
2019-05-06T00:15:29.897Z,101513.56
2019-05-06T00:17:59.554Z,101510.93
2019-05-06T00:20:30.276Z,101508.41
2019-05-06T00:23:06.893Z,101510.16
2019-05-06T00:25:40.876Z,101515.89
2019-05-06T00:28:24.472Z,101514.01
2019-05-06T00:31:09.588Z,101509.48
2019-05-06T00:33:27.808Z,101510.89
2019-05-06T00:36:00.219Z,101515.23
2019-05-06T00:38:28.540Z,101517.56
2019-05-06T00:40:59.562Z,101515.01
2019-05-06T00:43:29.967Z,101517.27
2019-05-06T00:45:59.597Z,101514.08
2019-05-06T00:48:29.942Z,101512.75
2019-05-06T00:50:59.330Z,101509.59
2019-05-06T00:53:31.962Z,101505.55
2019-05-06T00:56:01.866Z,101510.41
2019-05-06T00:58:31.571Z,101501.48
2019-05-06T01:01:01.205Z,101498.73
2019-05-06T01:03:34.754Z,101501.28
2019-05-06T01:06:04.005Z,101508.28
2019-05-06T01:08:34.836Z,101500.57
2019-05-06T01:11:05.284Z,101499.09
2019-05-06T01:13:48.425Z,101502.16
2019-05-06T01:16:19.701Z,101507.83
2019-05-06T01:18:49.062Z,101500.19
2019-05-06T01:21:18.730Z,101493.55
2019-05-06T01:23:48.121Z,101494.03
2019-05-06T01:26:17.821Z,101490.88
2019-05-06T01:28:47.948Z,101492.17
2019-05-06T01:31:17.600Z,101496.95
2019-05-06T01:33:47.002Z,101501.36
2019-05-06T01:36:16.646Z,101503.03
2019-05-06T01:38:59.438Z,101498.05
2019-05-06T01:41:35.700Z,101496.51
2019-05-06T01:44:05.613Z,101494.03
2019-05-06T01:46:34.986Z,101498.16
2019-05-06T01:49:04.785Z,101503.91
2019-05-06T01:51:34.819Z,101500.49
2019-05-06T01:54:04.398Z,101505.76
2019-05-06T01:56:34.051Z,101505.16
2019-05-06T01:59:04.696Z,101505.05
2019-05-06T02:01:34.434Z,101502.85
2019-05-06T02:04:05.653Z,101498.37
2019-05-06T02:06:35.312Z,101497.92
2019-05-06T02:09:10.614Z,101499.30
2019-05-06T02:11:39.989Z,101501.77
2019-05-06T02:14:09.370Z,101499.10
2019-05-06T02:16:39.273Z,101506.66
2019-05-06T02:19:08.799Z,101502.17
2019-05-06T02:21:39.796Z,101506.25
2019-05-06T02:24:16.735Z,101498.25
2019-05-06T02:26:46.146Z,101503.03
2019-05-06T02:29:29.662Z,101502.50
2019-05-06T02:32:17.107Z,101497.57
2019-05-06T02:34:54.653Z,101493.23
2019-05-06T02:37:40.331Z,101487.30
2019-05-06T02:40:24.238Z,101487.30
2019-05-06T02:42:54.635Z,101490.78
2019-05-06T02:45:24.149Z,101490.78
2019-05-06T02:47:55.583Z,101492.84
2019-05-06T02:50:26.610Z,101489.12
2019-05-06T02:52:55.987Z,101489.48
2019-05-06T02:55:25.356Z,101491.67
2019-05-06T02:57:54.933Z,101496.08
2019-05-06T03:00:24.291Z,101494.34
2019-05-06T03:02:54.987Z,101491.75
2019-05-06T03:05:24.420Z,101488.20
2019-05-06T03:07:57.093Z,101481.07
2019-05-06T03:10:25.086Z,101485.00
2019-05-06T03:12:54.751Z,101482.25
2019-05-06T03:15:24.368Z,101481.84
2019-05-06T03:17:55.298Z,101480.19
2019-05-06T03:20:32.382Z,101478.41
2019-05-06T03:23:08.605Z,101475.17
2019-05-06T03:25:39.835Z,101477.64
2019-05-06T03:28:09.223Z,101478.05
2019-05-06T03:30:38.608Z,101462.95
2019-05-06T03:33:38.292Z,101462.95
2019-05-06T03:35:56.051Z,101465.17
2019-05-06T03:38:13.559Z,101467.84
2019-05-06T03:40:45.726Z,101466.03
2019-05-06T03:43:15.909Z,101468.77
2019-05-06T03:46:04.292Z,101471.85
2019-05-06T03:48:38.081Z,101472.86
2019-05-06T03:51:07.482Z,101471.13
2019-05-06T03:53:37.519Z,101476.46
2019-05-06T03:56:07.033Z,101475.58
2019-05-06T03:58:37.680Z,101473.63
2019-05-06T04:01:07.043Z,101475.78
2019-05-06T04:03:46.857Z,101474.92
2019-05-06T04:06:07.543Z,101474.84
2019-05-06T04:08:37.576Z,101480.91
2019-05-06T04:11:07.086Z,101471.97
2019-05-06T04:13:36.864Z,101471.65
2019-05-06T04:16:13.883Z,101477.84
2019-05-06T04:18:48.150Z,101471.89
2019-05-06T04:21:19.417Z,101472.70
2019-05-06T04:23:53.380Z,101467.77
2019-05-06T04:26:26.707Z,101465.50
2019-05-06T04:28:56.374Z,101463.68
2019-05-06T04:31:26.074Z,101465.50
2019-05-06T04:34:08.017Z,101461.00
2019-05-06T04:36:27.153Z,101464.81
2019-05-06T04:38:56.531Z,101460.35
2019-05-06T04:41:26.609Z,101458.94
2019-05-06T04:43:56.332Z,101458.94
2019-05-06T04:46:25.983Z,101459.18
2019-05-06T04:48:55.366Z,101460.92
2019-05-06T04:51:25.136Z,101465.03
2019-05-06T04:53:54.469Z,101473.57
2019-05-06T04:56:24.147Z,101472.23
2019-05-06T04:58:54.029Z,101480.61
2019-05-06T05:01:23.543Z,101477.72
2019-05-06T05:03:54.104Z,101484.33
2019-05-06T05:06:23.509Z,101485.53
2019-05-06T05:08:53.749Z,101483.23
2019-05-06T05:11:42.373Z,101482.16
2019-05-06T05:14:25.964Z,101488.47
2019-05-06T05:17:13.369Z,101489.06
2019-05-06T05:19:42.954Z,101489.33
2019-05-06T05:22:12.692Z,101486.36
2019-05-06T05:24:42.583Z,101479.91
2019-05-06T05:27:12.642Z,101481.59
2019-05-06T05:29:42.534Z,101474.83
2019-05-06T05:32:12.768Z,101476.40
2019-05-06T05:34:43.577Z,101475.81
2019-05-06T05:37:13.185Z,101491.55
2019-05-06T05:39:42.920Z,101491.55
2019-05-06T05:42:29.133Z,101484.38
2019-05-06T05:44:58.986Z,101490.40
2019-05-06T05:47:28.354Z,101488.84
2019-05-06T05:50:02.986Z,101496.08
2019-05-06T05:52:33.091Z,101493.12
2019-05-06T05:55:03.350Z,101487.91
2019-05-06T05:57:32.713Z,101497.38
2019-05-06T06:00:04.020Z,101493.36
2019-05-06T06:02:34.685Z,101497.31
2019-05-06T06:05:06.141Z,101490.09
2019-05-06T06:07:36.033Z,101490.09
2019-05-06T06:10:12.919Z,101486.38
2019-05-06T06:12:42.973Z,101483.25
2019-05-06T06:15:16.539Z,101493.73
2019-05-06T06:17:51.906Z,101493.73
2019-05-06T06:20:39.328Z,101489.14
2019-05-06T06:23:10.398Z,101490.87
2019-05-06T06:25:39.800Z,101482.92
2019-05-06T06:28:11.934Z,101481.30
2019-05-06T06:30:52.082Z,101486.34
2019-05-06T06:33:22.326Z,101480.74
2019-05-06T06:35:56.114Z,101481.22
2019-05-06T06:38:43.333Z,101476.33
2019-05-06T06:41:12.954Z,101479.61
2019-05-06T06:43:44.200Z,101479.61
2019-05-06T06:46:13.579Z,101484.03
2019-05-06T06:48:43.101Z,101484.83
2019-05-06T06:51:12.507Z,101481.84
2019-05-06T06:53:42.881Z,101478.58
2019-05-06T06:56:22.048Z,101474.95
2019-05-06T06:59:09.464Z,101474.95
2019-05-06T07:01:52.944Z,101480.08
2019-05-06T07:07:20.028Z,101471.95
2019-05-06T07:09:52.496Z,101470.95
2019-05-06T07:12:23.427Z,101471.86
2019-05-06T07:14:54.464Z,101471.86
2019-05-06T07:17:23.839Z,101475.59
2019-05-06T07:19:57.839Z,101479.41
2019-05-06T07:22:29.059Z,101473.89
2019-05-06T07:24:58.423Z,101473.89
2019-05-06T07:27:28.971Z,101478.45
2019-05-06T07:29:58.515Z,101483.29
2019-05-06T07:32:29.035Z,101483.29
2019-05-06T07:34:58.502Z,101478.88
2019-05-06T07:37:27.874Z,101475.99
2019-05-06T07:39:57.709Z,101480.73
2019-05-06T07:42:28.747Z,101480.73
2019-05-06T07:45:15.102Z,101477.22
2019-05-06T07:47:46.779Z,101479.27
2019-05-06T07:50:16.600Z,101472.31
2019-05-06T07:53:03.581Z,101472.17
2019-05-06T07:55:32.938Z,101470.41
2019-05-06T07:58:03.024Z,101466.21
2019-05-06T08:00:33.988Z,101474.56
2019-05-06T08:03:03.677Z,101474.56
2019-05-06T08:05:33.051Z,101470.63
2019-05-06T08:08:03.542Z,101474.95
2019-05-06T08:10:33.523Z,101467.72
2019-05-06T08:13:03.070Z,101469.02
2019-05-06T08:15:33.038Z,101469.48
2019-05-06T08:18:03.539Z,101468.66
2019-05-06T08:20:37.277Z,101464.05
2019-05-06T08:23:12.631Z,101473.38
2019-05-06T08:25:43.729Z,101469.78
2019-05-06T08:28:13.453Z,101460.17
2019-05-06T08:30:43.985Z,101473.82
2019-05-06T08:33:13.720Z,101466.92
2019-05-06T08:35:43.082Z,101460.34
2019-05-06T08:38:12.610Z,101458.49
2019-05-06T08:40:43.027Z,101461.46
2019-05-06T08:43:13.608Z,101461.92
2019-05-06T08:45:43.259Z,101457.61
2019-05-06T08:48:13.141Z,101457.69
2019-05-06T08:50:48.077Z,101450.82
2019-05-06T08:53:19.340Z,101450.47
2019-05-06T08:55:50.280Z,101454.66
2019-05-06T08:58:22.133Z,101443.09
2019-05-06T09:00:55.541Z,101449.36
2019-05-06T09:03:24.633Z,101448.22
2019-05-06T09:05:54.005Z,101446.67
2019-05-06T09:08:25.031Z,101444.17
2019-05-06T09:10:54.696Z,101454.96
2019-05-06T09:13:24.087Z,101451.48
2019-05-06T09:15:53.776Z,101445.47
2019-05-06T09:18:24.071Z,101434.47
2019-05-06T09:20:53.843Z,101447.11
2019-05-06T09:23:23.216Z,101434.98
2019-05-06T09:25:53.276Z,101435.27
2019-05-06T09:28:24.353Z,101432.28
2019-05-06T09:30:57.985Z,101432.71
2019-05-06T09:33:28.998Z,101430.75
2019-05-06T09:35:58.367Z,101435.36
2019-05-06T09:38:28.025Z,101430.04
2019-05-06T09:40:57.757Z,101420.16
2019-05-06T09:43:27.086Z,101429.48
2019-05-06T09:45:57.003Z,101423.97
2019-05-06T09:48:44.001Z,101417.94
2019-05-06T09:51:13.371Z,101428.30
2019-05-06T09:54:04.102Z,101409.20
2019-05-06T09:56:42.778Z,101409.20
2019-05-06T09:59:12.904Z,101424.86
2019-05-06T10:01:43.863Z,101420.51
2019-05-06T10:04:13.202Z,101421.97
2019-05-06T10:06:55.791Z,101420.84
2019-05-06T10:09:15.847Z,101412.81
2019-05-06T10:11:45.093Z,101416.86
2019-05-06T10:14:14.767Z,101411.00
2019-05-06T10:16:46.520Z,101416.73
2019-05-06T10:19:15.920Z,101411.00
2019-05-06T10:21:45.582Z,101411.26
2019-05-06T10:24:15.053Z,101413.39
2019-05-06T10:26:46.324Z,101411.14
2019-05-06T10:29:22.205Z,101410.29
2019-05-06T10:31:52.884Z,101409.77
2019-05-06T10:34:32.796Z,101407.13
2019-05-06T10:37:19.282Z,101404.22
2019-05-06T10:40:05.163Z,101409.10
2019-05-06T10:42:38.244Z,101404.06
2019-05-06T10:45:28.000Z,101399.52
2019-05-06T10:47:57.435Z,101402.94
2019-05-06T10:50:28.640Z,101394.15
2019-05-06T10:53:15.135Z,101392.63
2019-05-06T10:55:53.350Z,101405.45
2019-05-06T10:58:22.521Z,101402.87
2019-05-06T11:00:53.946Z,101398.63
2019-05-06T11:03:23.753Z,101395.31
2019-05-06T11:05:53.706Z,101386.88
2019-05-06T11:08:23.186Z,101388.78
2019-05-06T11:10:53.624Z,101379.00
2019-05-06T11:13:24.409Z,101380.56
2019-05-06T11:15:55.680Z,101382.47
2019-05-06T11:18:25.182Z,101377.31
2019-05-06T11:20:56.319Z,101378.69
2019-05-06T11:23:26.009Z,101370.94
2019-05-06T11:25:55.381Z,101362.27
2019-05-06T11:28:42.980Z,101362.38
2019-05-06T11:31:25.744Z,101359.58
2019-05-06T11:33:59.706Z,101354.22
2019-05-06T11:36:48.678Z,101355.18
2019-05-06T11:39:18.129Z,101353.92
2019-05-06T11:42:01.381Z,101352.61
2019-05-06T11:44:18.881Z,101350.92
2019-05-06T11:46:48.285Z,101346.95
2019-05-06T11:49:17.946Z,101346.09
2019-05-06T11:51:47.614Z,101346.23
2019-05-06T11:54:20.835Z,101344.95
2019-05-06T11:56:51.908Z,101351.34
2019-05-06T11:59:22.668Z,101348.39
2019-05-06T12:01:53.748Z,101347.55
2019-05-06T12:04:23.492Z,101335.00
2019-05-06T12:07:09.219Z,101338.33
2019-05-06T12:09:24.134Z,101345.10
2019-05-06T12:11:55.916Z,101351.49
2019-05-06T12:14:25.268Z,101354.51
2019-05-06T12:16:55.286Z,101352.88
2019-05-06T12:19:24.983Z,101350.33
2019-05-06T12:21:54.353Z,101357.28
2019-05-06T12:24:23.718Z,101350.12
2019-05-06T12:26:53.432Z,101362.37
2019-05-06T12:29:23.374Z,101351.82
2019-05-06T12:31:54.683Z,101359.11
2019-05-06T12:34:25.515Z,101358.28
2019-05-06T12:36:56.720Z,101350.90
2019-05-06T12:39:26.965Z,101352.05
2019-05-06T12:42:06.926Z,101361.29
2019-05-06T12:44:38.530Z,101368.66
2019-05-06T12:47:09.750Z,101377.50
2019-05-06T12:49:39.126Z,101390.20
2019-05-06T12:52:08.504Z,101383.36
2019-05-06T12:54:38.358Z,101391.12
2019-05-06T12:57:07.737Z,101390.34
2019-05-06T12:59:37.370Z,101392.02
2019-05-06T13:02:06.744Z,101391.79
2019-05-06T13:04:49.557Z,101382.44
2019-05-06T13:07:09.112Z,101382.19
2019-05-06T13:09:42.351Z,101380.64
2019-05-06T13:12:12.442Z,101384.12
2019-05-06T13:14:43.065Z,101391.31
2019-05-06T13:17:14.156Z,101377.77
2019-05-06T13:19:43.834Z,101386.62
2019-05-06T13:22:14.845Z,101390.14
2019-05-06T13:24:44.520Z,101382.69
2019-05-06T13:27:15.809Z,101382.69
2019-05-06T13:29:45.534Z,101386.88
2019-05-06T13:32:16.824Z,101387.96
2019-05-06T13:34:46.479Z,101388.21
2019-05-06T13:37:16.324Z,101382.30
2019-05-06T13:39:45.789Z,101385.05
2019-05-06T13:42:16.951Z,101387.36
2019-05-06T13:44:46.776Z,101386.13
2019-05-06T13:47:34.099Z,101383.55
2019-05-06T13:50:05.096Z,101383.89
2019-05-06T13:52:36.408Z,101384.48
2019-05-06T13:55:09.069Z,101385.12
2019-05-06T13:57:39.410Z,101392.03
2019-05-06T14:00:09.801Z,101393.78
2019-05-06T14:02:43.444Z,101385.52
2019-05-06T14:05:12.543Z,101383.00
2019-05-06T14:07:43.308Z,101394.17
2019-05-06T14:10:14.408Z,101387.97
2019-05-06T14:12:44.388Z,101384.68
2019-05-06T14:15:13.913Z,101383.88
2019-05-06T14:17:43.553Z,101392.66
2019-05-06T14:20:13.752Z,101391.94
2019-05-06T14:22:44.011Z,101395.61
2019-05-06T14:25:17.989Z,101402.20
2019-05-06T14:27:49.300Z,101408.17
2019-05-06T14:30:26.135Z,101402.97
2019-05-06T14:32:55.808Z,101410.63
2019-05-06T14:35:25.396Z,101397.09
2019-05-06T14:37:54.781Z,101401.58
2019-05-06T14:40:27.648Z,101401.25
2019-05-06T14:42:58.313Z,101396.55
2019-05-06T14:45:27.696Z,101403.13
2019-05-06T14:47:57.385Z,101404.21
2019-05-06T14:50:31.245Z,101409.37
2019-05-06T14:52:58.347Z,101421.95
2019-05-06T14:55:29.354Z,101428.52
2019-05-06T14:57:58.731Z,101424.13
2019-05-06T15:00:28.392Z,101381.01
2019-05-06T15:02:57.772Z,101381.01
2019-05-06T15:05:27.460Z,101372.14
2019-05-06T15:07:56.836Z,101374.11
2019-05-06T15:10:26.660Z,101372.09
2019-05-06T15:12:56.853Z,101375.38
2019-05-06T15:15:26.504Z,101372.75
2019-05-06T15:17:55.940Z,101366.62
2019-05-06T15:20:25.519Z,101363.86
2019-05-06T15:22:54.882Z,101369.66
2019-05-06T15:25:24.464Z,101368.19
2019-05-06T15:27:53.847Z,101371.73
2019-05-06T15:30:28.026Z,101365.77
2019-05-06T15:32:57.542Z,101371.83
2019-05-06T15:35:29.197Z,101371.28
2019-05-06T15:38:02.854Z,101365.36
2019-05-06T15:40:36.573Z,101374.27
2019-05-06T15:43:03.666Z,101368.41
2019-05-06T15:45:33.917Z,101367.12
2019-05-06T15:48:03.598Z,101365.78
2019-05-06T15:50:33.028Z,101362.31
2019-05-06T15:53:02.493Z,101367.27
2019-05-06T15:55:32.741Z,101369.52
2019-05-06T15:58:03.484Z,101365.30
2019-05-06T16:00:33.661Z,101371.05
2019-05-06T16:03:03.465Z,101365.44
2019-05-06T16:05:34.518Z,101369.03
2019-05-06T16:08:03.951Z,101364.64
2019-05-06T16:10:50.958Z,101365.91
2019-05-06T16:13:04.754Z,101358.86
2019-05-06T16:15:34.269Z,101359.28
2019-05-06T16:18:04.455Z,101360.76
2019-05-06T16:20:34.008Z,101364.04
2019-05-06T16:23:07.813Z,101367.50
2019-05-06T16:25:37.470Z,101369.05
2019-05-06T16:28:07.194Z,101374.52
2019-05-06T16:30:36.584Z,101368.23
2019-05-06T16:33:05.954Z,101380.91
2019-05-06T16:35:35.613Z,101390.13
2019-05-06T16:38:05.319Z,101398.89
2019-05-06T16:40:35.927Z,101398.14
2019-05-06T16:43:05.582Z,101401.42
2019-05-06T16:45:35.236Z,101402.92
2019-05-06T16:48:04.829Z,101404.89
2019-05-06T16:50:34.662Z,101403.47
2019-05-06T16:53:04.040Z,101400.59
2019-05-06T16:55:52.701Z,101401.54
2019-05-06T16:58:26.942Z,101391.57
2019-05-06T17:00:56.590Z,101376.00
2019-05-06T17:03:33.263Z,101380.03
2019-05-06T17:06:23.131Z,101383.11
2019-05-06T17:08:53.756Z,101379.47
2019-05-06T17:11:30.292Z,101378.89
2019-05-06T17:13:54.509Z,101379.17
2019-05-06T17:16:23.868Z,101383.48
2019-05-06T17:18:56.365Z,101389.14
2019-05-06T17:21:24.301Z,101388.85
2019-05-06T17:23:53.721Z,101393.17
2019-05-06T17:26:23.080Z,101399.05
2019-05-06T17:28:57.245Z,101400.58
2019-05-06T17:31:37.371Z,101401.25
2019-05-06T17:34:12.843Z,101402.89
2019-05-06T17:36:42.574Z,101399.92
2019-05-06T17:39:12.430Z,101408.48
2019-05-06T17:41:48.289Z,101415.28
2019-05-06T17:44:13.397Z,101414.26
2019-05-06T17:46:56.439Z,101412.14
2019-05-06T17:49:27.479Z,101413.55
2019-05-06T17:52:04.442Z,101409.73
2019-05-06T17:54:34.115Z,101413.09
2019-05-06T17:57:04.714Z,101411.09
2019-05-06T17:59:37.303Z,101416.75
2019-05-06T18:02:06.922Z,101410.20
2019-05-06T18:04:36.384Z,101416.92
2019-05-06T18:07:05.843Z,101415.66
2019-05-06T18:09:36.189Z,101409.67
2019-05-06T18:12:05.732Z,101410.28
2019-05-06T18:14:35.188Z,101406.03
2019-05-06T18:17:04.752Z,101406.03
2019-05-06T18:19:34.501Z,101408.23
2019-05-06T18:22:03.980Z,101409.95
2019-05-06T18:24:33.834Z,101404.69
2019-05-06T18:27:03.285Z,101411.12
2019-05-06T18:29:33.555Z,101414.37
2019-05-06T18:32:03.886Z,101414.37
2019-05-06T18:34:34.338Z,101416.28
2019-05-06T18:37:03.927Z,101422.14
2019-05-06T18:39:34.067Z,101429.71
2019-05-06T18:42:15.524Z,101432.50
2019-05-06T18:44:35.148Z,101428.58
2019-05-06T18:47:04.819Z,101434.52
2019-05-06T18:49:34.187Z,101437.66
2019-05-06T18:52:04.981Z,101432.95
2019-05-06T18:54:34.516Z,101439.67
2019-05-06T18:57:04.926Z,101437.08
2019-05-06T18:59:36.920Z,101434.11
2019-05-06T19:02:05.852Z,101433.22
2019-05-06T19:04:37.165Z,101433.22
2019-05-06T19:07:12.791Z,101425.44
2019-05-06T19:09:39.816Z,101430.06
2019-05-06T19:12:09.242Z,101428.33
2019-05-06T19:14:38.875Z,101431.68
2019-05-06T19:17:08.248Z,101427.26
2019-05-06T19:19:37.915Z,101423.63
2019-05-06T19:22:07.292Z,101430.73
2019-05-06T19:24:36.941Z,101433.41
2019-05-06T19:27:06.322Z,101434.27
2019-05-06T19:29:35.869Z,101439.24
2019-05-06T19:32:05.269Z,101442.42
2019-05-06T19:34:35.353Z,101436.66
2019-05-06T19:37:05.033Z,101445.67
2019-05-06T19:39:34.877Z,101444.89
2019-05-06T19:42:05.142Z,101457.47
2019-05-06T19:44:35.895Z,101455.24
2019-05-06T19:47:05.271Z,101448.13
2019-05-06T19:49:35.029Z,101456.87
2019-05-06T19:52:04.400Z,101452.84
2019-05-06T19:54:34.077Z,101453.61
2019-05-06T19:57:03.565Z,101453.77
2019-05-06T19:59:33.468Z,101457.91
2019-05-06T20:02:05.165Z,101452.63
2019-05-06T20:04:35.814Z,101452.53
2019-05-06T20:07:13.309Z,101451.39
2019-05-06T20:09:44.744Z,101453.56
2019-05-06T20:12:26.701Z,101455.27
2019-05-06T20:14:57.701Z,101455.27
2019-05-06T20:17:27.083Z,101449.97
2019-05-06T20:19:56.457Z,101458.58
2019-05-06T20:22:26.141Z,101451.50
2019-05-06T20:24:55.508Z,101451.50
2019-05-06T20:27:25.179Z,101455.41
2019-05-06T20:29:54.554Z,101455.41
2019-05-06T20:32:24.056Z,101454.09
2019-05-06T20:34:53.425Z,101454.09
2019-05-06T20:37:23.118Z,101453.60
2019-05-06T20:39:52.484Z,101451.58
2019-05-06T20:42:22.306Z,101457.95
2019-05-06T20:44:52.486Z,101455.17
2019-05-06T20:47:22.087Z,101455.69
2019-05-06T20:49:52.592Z,101455.69
2019-05-06T20:52:23.007Z,101455.16
2019-05-06T20:54:52.501Z,101455.16
2019-05-06T20:57:23.088Z,101454.92
2019-05-06T20:59:52.768Z,101454.92
2019-05-06T21:02:25.632Z,101456.45
2019-05-06T21:04:53.493Z,101460.88
2019-05-06T21:07:23.245Z,101457.86
2019-05-06T21:09:52.630Z,101457.86
2019-05-06T21:12:23.186Z,101455.13
2019-05-06T21:14:52.574Z,101455.38
2019-05-06T21:17:22.877Z,101454.92
2019-05-06T21:19:52.413Z,101454.92
2019-05-06T21:22:22.746Z,101454.44
2019-05-06T21:24:52.267Z,101456.66
2019-05-06T21:27:23.015Z,101454.44
2019-05-06T21:29:52.869Z,101446.09
2019-05-06T21:32:22.248Z,101445.95
2019-05-06T21:34:52.595Z,101443.48
2019-05-06T21:37:22.994Z,101441.05
2019-05-06T21:39:53.034Z,101433.58
2019-05-06T21:42:24.066Z,101434.92
2019-05-06T21:44:53.538Z,101432.00
2019-05-06T21:47:23.035Z,101428.62
2019-05-06T21:49:52.906Z,101428.72
2019-05-06T21:52:34.348Z,101430.81
2019-05-06T21:54:53.454Z,101435.72
2019-05-06T21:57:23.120Z,101437.05
2019-05-06T21:59:52.666Z,101441.87
2019-05-06T22:02:23.024Z,101446.59
2019-05-06T22:04:55.497Z,101449.97
2019-05-06T22:07:23.582Z,101439.55
2019-05-06T22:09:53.246Z,101436.78
2019-05-06T22:12:24.480Z,101439.55
2019-05-06T22:14:53.695Z,101439.55
2019-05-06T22:17:23.270Z,101430.27
2019-05-06T22:19:52.639Z,101441.53
2019-05-06T22:22:24.206Z,101436.32
2019-05-06T22:24:57.657Z,101439.00
2019-05-06T22:27:26.761Z,101440.59
2019-05-06T22:29:56.309Z,101441.17
2019-05-06T22:32:25.702Z,101440.37
2019-05-06T22:34:55.281Z,101442.02
2019-05-06T22:37:24.659Z,101440.04
2019-05-06T22:39:54.322Z,101445.30
2019-05-06T22:42:24.920Z,101447.44
2019-05-06T22:44:54.451Z,101441.13
2019-05-06T22:47:23.839Z,101446.09
2019-05-06T22:49:54.332Z,101442.27
2019-05-06T22:52:23.868Z,101441.53
2019-05-06T22:54:53.412Z,101446.19
2019-05-06T22:57:23.558Z,101436.69
2019-05-06T22:59:53.548Z,101443.05
2019-05-06T23:02:33.513Z,101444.88
2019-05-06T23:05:04.553Z,101447.47
2019-05-06T23:07:34.223Z,101444.73
2019-05-06T23:10:06.622Z,101447.47
2019-05-06T23:12:36.317Z,101449.84
2019-05-06T23:15:07.274Z,101455.75
2019-05-06T23:17:36.749Z,101452.30
2019-05-06T23:20:06.492Z,101449.63
2019-05-06T23:22:36.848Z,101454.01
2019-05-06T23:25:06.886Z,101454.09
2019-05-06T23:42:19.765Z,101466.95
2019-05-06T23:45:25.800Z,101461.92
2019-05-06T23:48:31.809Z,101458.05
2019-05-06T23:51:38.692Z,101464.05
2019-05-06T23:54:44.783Z,101459.86
2019-05-06T23:57:13.416Z,101462.31
2019-05-06T23:59:43.134Z,101461.44
